sensor_id;sensor_type;location;lat;lon;timestamp;P1;durP1;ratioP1;P2;durP2;ratioP2
54899;SDS011;40801;41.924;25.562;2024-03-25T00:01:24;11.13;;;10.05;;
54899;SDS011;40801;41.924;25.562;2024-03-25T00:03:50;10.43;;;9.10;;
54899;SDS011;40801;41.924;25.562;2024-03-25T00:06:15;9.55;;;8.75;;
54899;SDS011;40801;41.924;25.562;2024-03-25T00:08:41;8.15;;;7.40;;
54899;SDS011;40801;41.924;25.562;2024-03-25T00:11:07;9.23;;;8.32;;
54899;SDS011;40801;41.924;25.562;2024-03-25T00:13:32;9.00;;;8.23;;
54899;SDS011;40801;41.924;25.562;2024-03-25T00:15:58;9.00;;;7.88;;
54899;SDS011;40801;41.924;25.562;2024-03-25T00:18:23;9.23;;;8.43;;
54899;SDS011;40801;41.924;25.562;2024-03-25T00:20:48;9.43;;;8.23;;
54899;SDS011;40801;41.924;25.562;2024-03-25T00:23:14;10.02;;;9.02;;
54899;SDS011;40801;41.924;25.562;2024-03-25T00:25:40;10.13;;;9.05;;
54899;SDS011;40801;41.924;25.562;2024-03-25T00:28:05;8.77;;;7.97;;
54899;SDS011;40801;41.924;25.562;2024-03-25T00:30:31;8.38;;;7.68;;
54899;SDS011;40801;41.924;25.562;2024-03-25T00:32:56;8.18;;;7.47;;
54899;SDS011;40801;41.924;25.562;2024-03-25T00:35:21;8.50;;;7.70;;
54899;SDS011;40801;41.924;25.562;2024-03-25T00:37:48;9.23;;;8.43;;
54899;SDS011;40801;41.924;25.562;2024-03-25T00:40:14;8.80;;;8.07;;
54899;SDS011;40801;41.924;25.562;2024-03-25T00:42:39;8.38;;;7.68;;
54899;SDS011;40801;41.924;25.562;2024-03-25T00:45:05;11.18;;;8.00;;
54899;SDS011;40801;41.924;25.562;2024-03-25T00:47:31;8.57;;;7.72;;
54899;SDS011;40801;41.924;25.562;2024-03-25T00:49:57;9.55;;;8.63;;
54899;SDS011;40801;41.924;25.562;2024-03-25T00:52:22;8.52;;;7.82;;
54899;SDS011;40801;41.924;25.562;2024-03-25T00:54:47;9.23;;;8.45;;
54899;SDS011;40801;41.924;25.562;2024-03-25T00:57:13;11.10;;;9.85;;
54899;SDS011;40801;41.924;25.562;2024-03-25T00:59:38;13.50;;;10.45;;
54899;SDS011;40801;41.924;25.562;2024-03-25T01:02:04;10.23;;;9.10;;
54899;SDS011;40801;41.924;25.562;2024-03-25T01:04:29;9.82;;;8.82;;
54899;SDS011;40801;41.924;25.562;2024-03-25T01:06:55;8.77;;;7.88;;
54899;SDS011;40801;41.924;25.562;2024-03-25T01:09:20;8.25;;;7.55;;
54899;SDS011;40801;41.924;25.562;2024-03-25T01:11:47;8.60;;;7.88;;
54899;SDS011;40801;41.924;25.562;2024-03-25T01:14:12;8.20;;;7.40;;
54899;SDS011;40801;41.924;25.562;2024-03-25T01:16:38;8.52;;;7.70;;
54899;SDS011;40801;41.924;25.562;2024-03-25T01:19:03;8.63;;;7.82;;
54899;SDS011;40801;41.924;25.562;2024-03-25T01:21:28;9.73;;;8.40;;
54899;SDS011;40801;41.924;25.562;2024-03-25T01:23:55;10.20;;;9.20;;
54899;SDS011;40801;41.924;25.562;2024-03-25T01:26:20;8.98;;;8.02;;
54899;SDS011;40801;41.924;25.562;2024-03-25T01:28:47;9.75;;;7.97;;
54899;SDS011;40801;41.924;25.562;2024-03-25T01:31:12;9.77;;;8.82;;
54899;SDS011;40801;41.924;25.562;2024-03-25T01:33:38;9.52;;;7.60;;
54899;SDS011;40801;41.924;25.562;2024-03-25T01:36:04;8.88;;;7.10;;
54899;SDS011;40801;41.924;25.562;2024-03-25T01:38:30;8.60;;;7.53;;
54899;SDS011;40801;41.924;25.562;2024-03-25T01:41:06;8.30;;;7.45;;
54899;SDS011;40801;41.924;25.562;2024-03-25T01:43:32;9.20;;;8.15;;
54899;SDS011;40801;41.924;25.562;2024-03-25T01:45:57;8.82;;;7.93;;
54899;SDS011;40801;41.924;25.562;2024-03-25T01:48:23;7.10;;;6.53;;
54899;SDS011;40801;41.924;25.562;2024-03-25T01:50:48;7.88;;;7.10;;
54899;SDS011;40801;41.924;25.562;2024-03-25T01:53:14;8.57;;;7.88;;
54899;SDS011;40801;41.924;25.562;2024-03-25T01:55:40;9.32;;;7.30;;
54899;SDS011;40801;41.924;25.562;2024-03-25T01:58:06;8.30;;;7.50;;
54899;SDS011;40801;41.924;25.562;2024-03-25T02:00:32;9.10;;;8.20;;
54899;SDS011;40801;41.924;25.562;2024-03-25T02:02:58;9.50;;;8.40;;
54899;SDS011;40801;41.924;25.562;2024-03-25T02:05:23;8.93;;;8.13;;
54899;SDS011;40801;41.924;25.562;2024-03-25T02:07:49;8.95;;;8.15;;
54899;SDS011;40801;41.924;25.562;2024-03-25T02:10:15;8.50;;;7.25;;
54899;SDS011;40801;41.924;25.562;2024-03-25T02:12:44;8.02;;;7.22;;
54899;SDS011;40801;41.924;25.562;2024-03-25T02:15:11;8.52;;;7.75;;
54899;SDS011;40801;41.924;25.562;2024-03-25T02:17:41;7.53;;;6.90;;
54899;SDS011;40801;41.924;25.562;2024-03-25T02:20:06;8.55;;;7.70;;
54899;SDS011;40801;41.924;25.562;2024-03-25T02:22:33;8.75;;;7.95;;
54899;SDS011;40801;41.924;25.562;2024-03-25T02:25:01;7.85;;;7.15;;
54899;SDS011;40801;41.924;25.562;2024-03-25T02:27:30;7.22;;;6.55;;
54899;SDS011;40801;41.924;25.562;2024-03-25T02:30:07;8.60;;;6.72;;
54899;SDS011;40801;41.924;25.562;2024-03-25T02:32:34;8.48;;;7.68;;
54899;SDS011;40801;41.924;25.562;2024-03-25T02:35:01;10.10;;;9.10;;
54899;SDS011;40801;41.924;25.562;2024-03-25T02:37:28;9.88;;;8.68;;
54899;SDS011;40801;41.924;25.562;2024-03-25T02:39:55;9.52;;;8.63;;
54899;SDS011;40801;41.924;25.562;2024-03-25T02:42:22;10.27;;;9.27;;
54899;SDS011;40801;41.924;25.562;2024-03-25T02:44:48;10.13;;;9.23;;
54899;SDS011;40801;41.924;25.562;2024-03-25T02:47:14;10.50;;;9.55;;
54899;SDS011;40801;41.924;25.562;2024-03-25T02:49:39;12.05;;;10.80;;
54899;SDS011;40801;41.924;25.562;2024-03-25T02:52:05;10.52;;;9.63;;
54899;SDS011;40801;41.924;25.562;2024-03-25T02:54:31;8.32;;;7.47;;
54899;SDS011;40801;41.924;25.562;2024-03-25T02:56:56;7.03;;;5.85;;
54899;SDS011;40801;41.924;25.562;2024-03-25T02:59:21;6.00;;;3.70;;
54899;SDS011;40801;41.924;25.562;2024-03-25T03:01:47;4.78;;;2.75;;
54899;SDS011;40801;41.924;25.562;2024-03-25T03:04:12;3.08;;;2.05;;
54899;SDS011;40801;41.924;25.562;2024-03-25T03:06:38;2.20;;;1.80;;
54899;SDS011;40801;41.924;25.562;2024-03-25T03:09:03;1.70;;;1.58;;
54899;SDS011;40801;41.924;25.562;2024-03-25T03:11:28;2.42;;;1.98;;
54899;SDS011;40801;41.924;25.562;2024-03-25T03:13:54;1.85;;;1.45;;
54899;SDS011;40801;41.924;25.562;2024-03-25T03:16:19;3.80;;;3.25;;
54899;SDS011;40801;41.924;25.562;2024-03-25T03:18:46;1.25;;;1.23;;
54899;SDS011;40801;41.924;25.562;2024-03-25T03:21:11;2.35;;;1.60;;
54899;SDS011;40801;41.924;25.562;2024-03-25T03:23:36;1.73;;;1.63;;
54899;SDS011;40801;41.924;25.562;2024-03-25T03:26:02;1.77;;;1.67;;
54899;SDS011;40801;41.924;25.562;2024-03-25T03:28:27;1.20;;;1.20;;
54899;SDS011;40801;41.924;25.562;2024-03-25T03:30:53;1.23;;;1.13;;
54899;SDS011;40801;41.924;25.562;2024-03-25T03:33:19;1.55;;;1.23;;
54899;SDS011;40801;41.924;25.562;2024-03-25T03:35:44;1.75;;;1.25;;
54899;SDS011;40801;41.924;25.562;2024-03-25T03:38:10;1.00;;;1.00;;
54899;SDS011;40801;41.924;25.562;2024-03-25T03:40:35;6.68;;;5.72;;
54899;SDS011;40801;41.924;25.562;2024-03-25T03:43:00;1.73;;;0.90;;
54899;SDS011;40801;41.924;25.562;2024-03-25T03:45:26;0.80;;;0.60;;
54899;SDS011;40801;41.924;25.562;2024-03-25T03:47:51;1.00;;;1.00;;
54899;SDS011;40801;41.924;25.562;2024-03-25T03:50:17;5.38;;;1.48;;
54899;SDS011;40801;41.924;25.562;2024-03-25T03:52:42;0.82;;;0.50;;
54899;SDS011;40801;41.924;25.562;2024-03-25T03:55:07;0.70;;;0.60;;
54899;SDS011;40801;41.924;25.562;2024-03-25T03:57:33;0.70;;;0.70;;
54899;SDS011;40801;41.924;25.562;2024-03-25T03:59:58;0.60;;;0.60;;
54899;SDS011;40801;41.924;25.562;2024-03-25T04:02:27;0.95;;;0.80;;
54899;SDS011;40801;41.924;25.562;2024-03-25T04:04:56;0.80;;;0.80;;
54899;SDS011;40801;41.924;25.562;2024-03-25T04:07:21;0.77;;;0.77;;
54899;SDS011;40801;41.924;25.562;2024-03-25T04:09:51;0.73;;;0.73;;
54899;SDS011;40801;41.924;25.562;2024-03-25T04:12:18;0.95;;;0.95;;
54899;SDS011;40801;41.924;25.562;2024-03-25T04:14:46;1.27;;;1.08;;
54899;SDS011;40801;41.924;25.562;2024-03-25T04:17:13;0.60;;;0.60;;
54899;SDS011;40801;41.924;25.562;2024-03-25T04:19:39;0.85;;;0.85;;
54899;SDS011;40801;41.924;25.562;2024-03-25T04:22:04;2.05;;;0.93;;
54899;SDS011;40801;41.924;25.562;2024-03-25T04:24:30;1.00;;;1.00;;
54899;SDS011;40801;41.924;25.562;2024-03-25T04:26:55;0.90;;;0.90;;
54899;SDS011;40801;41.924;25.562;2024-03-25T04:29:20;0.80;;;0.80;;
54899;SDS011;40801;41.924;25.562;2024-03-25T04:31:46;0.70;;;0.70;;
54899;SDS011;40801;41.924;25.562;2024-03-25T04:34:11;1.05;;;1.05;;
54899;SDS011;40801;41.924;25.562;2024-03-25T04:36:37;0.88;;;0.88;;
54899;SDS011;40801;41.924;25.562;2024-03-25T04:39:02;2.35;;;1.10;;
54899;SDS011;40801;41.924;25.562;2024-03-25T04:41:28;1.20;;;1.10;;
54899;SDS011;40801;41.924;25.562;2024-03-25T04:43:53;1.17;;;1.17;;
54899;SDS011;40801;41.924;25.562;2024-03-25T04:46:18;1.17;;;1.15;;
54899;SDS011;40801;41.924;25.562;2024-03-25T04:48:44;2.08;;;1.40;;
54899;SDS011;40801;41.924;25.562;2024-03-25T04:51:09;1.58;;;1.48;;
54899;SDS011;40801;41.924;25.562;2024-03-25T04:53:35;1.00;;;1.00;;
54899;SDS011;40801;41.924;25.562;2024-03-25T04:56:00;0.98;;;0.98;;
54899;SDS011;40801;41.924;25.562;2024-03-25T04:58:26;1.45;;;1.35;;
54899;SDS011;40801;41.924;25.562;2024-03-25T05:00:51;1.65;;;1.55;;
54899;SDS011;40801;41.924;25.562;2024-03-25T05:03:17;1.63;;;1.52;;
54899;SDS011;40801;41.924;25.562;2024-03-25T05:05:43;1.90;;;1.80;;
54899;SDS011;40801;41.924;25.562;2024-03-25T05:08:09;1.75;;;1.40;;
54899;SDS011;40801;41.924;25.562;2024-03-25T05:10:34;1.45;;;1.35;;
54899;SDS011;40801;41.924;25.562;2024-03-25T05:12:59;1.95;;;1.80;;
54899;SDS011;40801;41.924;25.562;2024-03-25T05:15:25;1.63;;;1.52;;
54899;SDS011;40801;41.924;25.562;2024-03-25T05:17:50;2.88;;;1.83;;
54899;SDS011;40801;41.924;25.562;2024-03-25T05:20:16;1.80;;;1.70;;
54899;SDS011;40801;41.924;25.562;2024-03-25T05:22:41;1.92;;;1.60;;
54899;SDS011;40801;41.924;25.562;2024-03-25T05:25:06;1.63;;;1.52;;
54899;SDS011;40801;41.924;25.562;2024-03-25T05:27:32;1.90;;;1.80;;
54899;SDS011;40801;41.924;25.562;2024-03-25T05:29:58;2.40;;;2.17;;
54899;SDS011;40801;41.924;25.562;2024-03-25T05:32:23;1.90;;;1.80;;
54899;SDS011;40801;41.924;25.562;2024-03-25T05:34:48;2.53;;;2.38;;
54899;SDS011;40801;41.924;25.562;2024-03-25T05:37:14;1.63;;;1.55;;
54899;SDS011;40801;41.924;25.562;2024-03-25T05:39:39;1.48;;;1.42;;
54899;SDS011;40801;41.924;25.562;2024-03-25T05:42:05;1.58;;;1.48;;
54899;SDS011;40801;41.924;25.562;2024-03-25T05:44:31;1.73;;;1.67;;
54899;SDS011;40801;41.924;25.562;2024-03-25T05:46:57;1.50;;;1.40;;
54899;SDS011;40801;41.924;25.562;2024-03-25T05:49:22;1.25;;;1.25;;
54899;SDS011;40801;41.924;25.562;2024-03-25T05:51:47;1.40;;;1.30;;
54899;SDS011;40801;41.924;25.562;2024-03-25T05:54:13;1.50;;;1.42;;
54899;SDS011;40801;41.924;25.562;2024-03-25T05:56:38;3.20;;;2.83;;
54899;SDS011;40801;41.924;25.562;2024-03-25T05:59:03;2.47;;;1.45;;
54899;SDS011;40801;41.924;25.562;2024-03-25T06:01:29;2.97;;;1.80;;
54899;SDS011;40801;41.924;25.562;2024-03-25T06:03:54;1.20;;;1.20;;
54899;SDS011;40801;41.924;25.562;2024-03-25T06:06:20;1.48;;;1.38;;
54899;SDS011;40801;41.924;25.562;2024-03-25T06:08:45;1.50;;;1.50;;
54899;SDS011;40801;41.924;25.562;2024-03-25T06:11:11;1.67;;;1.60;;
54899;SDS011;40801;41.924;25.562;2024-03-25T06:13:36;1.80;;;1.70;;
54899;SDS011;40801;41.924;25.562;2024-03-25T06:16:02;1.77;;;1.60;;
54899;SDS011;40801;41.924;25.562;2024-03-25T06:18:27;3.15;;;1.77;;
54899;SDS011;40801;41.924;25.562;2024-03-25T06:20:53;7.93;;;1.67;;
54899;SDS011;40801;41.924;25.562;2024-03-25T06:23:22;1.40;;;1.30;;
54899;SDS011;40801;41.924;25.562;2024-03-25T06:25:51;2.53;;;1.25;;
54899;SDS011;40801;41.924;25.562;2024-03-25T06:28:18;1.77;;;1.55;;
54899;SDS011;40801;41.924;25.562;2024-03-25T06:30:44;2.40;;;1.90;;
54899;SDS011;40801;41.924;25.562;2024-03-25T06:33:32;6.10;;;1.60;;
54899;SDS011;40801;41.924;25.562;2024-03-25T06:36:17;1.73;;;1.63;;
54899;SDS011;40801;41.924;25.562;2024-03-25T06:38:43;1.15;;;1.05;;
54899;SDS011;40801;41.924;25.562;2024-03-25T06:41:08;2.15;;;1.42;;
54899;SDS011;40801;41.924;25.562;2024-03-25T06:43:35;2.53;;;1.77;;
54899;SDS011;40801;41.924;25.562;2024-03-25T06:46:01;5.63;;;1.85;;
54899;SDS011;40801;41.924;25.562;2024-03-25T06:48:27;2.55;;;1.42;;
54899;SDS011;40801;41.924;25.562;2024-03-25T06:50:53;2.15;;;1.48;;
54899;SDS011;40801;41.924;25.562;2024-03-25T06:53:20;1.95;;;1.85;;
54899;SDS011;40801;41.924;25.562;2024-03-25T06:55:52;2.60;;;2.35;;
54899;SDS011;40801;41.924;25.562;2024-03-25T06:58:19;2.38;;;2.28;;
54899;SDS011;40801;41.924;25.562;2024-03-25T07:00:45;1.85;;;1.40;;
54899;SDS011;40801;41.924;25.562;2024-03-25T07:03:10;2.55;;;2.30;;
54899;SDS011;40801;41.924;25.562;2024-03-25T07:05:36;4.15;;;3.60;;
54899;SDS011;40801;41.924;25.562;2024-03-25T07:08:01;5.90;;;5.25;;
54899;SDS011;40801;41.924;25.562;2024-03-25T07:10:27;2.45;;;2.25;;
54899;SDS011;40801;41.924;25.562;2024-03-25T07:12:52;3.25;;;2.80;;
54899;SDS011;40801;41.924;25.562;2024-03-25T07:15:18;3.42;;;2.28;;
54899;SDS011;40801;41.924;25.562;2024-03-25T07:17:43;4.55;;;3.10;;
54899;SDS011;40801;41.924;25.562;2024-03-25T07:20:09;2.72;;;2.20;;
54899;SDS011;40801;41.924;25.562;2024-03-25T07:22:34;3.47;;;2.70;;
54899;SDS011;40801;41.924;25.562;2024-03-25T07:25:00;3.28;;;2.78;;
54899;SDS011;40801;41.924;25.562;2024-03-25T07:27:25;3.70;;;3.17;;
54899;SDS011;40801;41.924;25.562;2024-03-25T07:29:50;4.38;;;3.78;;
54899;SDS011;40801;41.924;25.562;2024-03-25T07:32:16;3.97;;;3.45;;
54899;SDS011;40801;41.924;25.562;2024-03-25T07:34:41;4.80;;;2.90;;
54899;SDS011;40801;41.924;25.562;2024-03-25T07:37:07;6.60;;;3.67;;
54899;SDS011;40801;41.924;25.562;2024-03-25T07:39:32;4.22;;;3.13;;
54899;SDS011;40801;41.924;25.562;2024-03-25T07:41:58;4.15;;;3.20;;
54899;SDS011;40801;41.924;25.562;2024-03-25T07:44:24;7.57;;;4.20;;
54899;SDS011;40801;41.924;25.562;2024-03-25T07:46:50;4.50;;;3.90;;
54899;SDS011;40801;41.924;25.562;2024-03-25T07:49:15;2.90;;;2.55;;
54899;SDS011;40801;41.924;25.562;2024-03-25T07:51:40;4.38;;;3.33;;
54899;SDS011;40801;41.924;25.562;2024-03-25T07:54:06;6.05;;;3.90;;
54899;SDS011;40801;41.924;25.562;2024-03-25T07:56:32;3.00;;;2.75;;
54899;SDS011;40801;41.924;25.562;2024-03-25T07:59:01;5.40;;;4.38;;
54899;SDS011;40801;41.924;25.562;2024-03-25T08:01:27;4.63;;;3.97;;
54899;SDS011;40801;41.924;25.562;2024-03-25T08:03:52;4.75;;;3.25;;
54899;SDS011;40801;41.924;25.562;2024-03-25T08:06:18;2.90;;;2.70;;
54899;SDS011;40801;41.924;25.562;2024-03-25T08:08:46;3.67;;;3.38;;
54899;SDS011;40801;41.924;25.562;2024-03-25T08:11:12;2.95;;;2.75;;
54899;SDS011;40801;41.924;25.562;2024-03-25T08:13:37;3.20;;;2.90;;
54899;SDS011;40801;41.924;25.562;2024-03-25T08:16:03;4.95;;;3.42;;
54899;SDS011;40801;41.924;25.562;2024-03-25T08:18:28;4.68;;;3.42;;
54899;SDS011;40801;41.924;25.562;2024-03-25T08:20:54;6.82;;;4.47;;
54899;SDS011;40801;41.924;25.562;2024-03-25T08:23:19;3.97;;;3.67;;
54899;SDS011;40801;41.924;25.562;2024-03-25T08:25:44;4.78;;;3.22;;
54899;SDS011;40801;41.924;25.562;2024-03-25T08:28:10;6.20;;;5.50;;
54899;SDS011;40801;41.924;25.562;2024-03-25T08:30:35;9.93;;;6.80;;
54899;SDS011;40801;41.924;25.562;2024-03-25T08:33:01;3.50;;;3.20;;
54899;SDS011;40801;41.924;25.562;2024-03-25T08:35:27;6.50;;;5.10;;
54899;SDS011;40801;41.924;25.562;2024-03-25T08:37:52;4.78;;;4.15;;
54899;SDS011;40801;41.924;25.562;2024-03-25T08:40:18;5.88;;;3.90;;
54899;SDS011;40801;41.924;25.562;2024-03-25T08:42:43;14.15;;;4.85;;
54899;SDS011;40801;41.924;25.562;2024-03-25T08:45:08;4.03;;;3.65;;
54899;SDS011;40801;41.924;25.562;2024-03-25T08:47:34;8.20;;;4.00;;
54899;SDS011;40801;41.924;25.562;2024-03-25T08:49:59;4.88;;;3.65;;
54899;SDS011;40801;41.924;25.562;2024-03-25T08:52:25;4.47;;;4.07;;
54899;SDS011;40801;41.924;25.562;2024-03-25T08:54:50;4.05;;;3.72;;
54899;SDS011;40801;41.924;25.562;2024-03-25T08:57:15;4.28;;;3.75;;
54899;SDS011;40801;41.924;25.562;2024-03-25T08:59:41;4.35;;;3.95;;
54899;SDS011;40801;41.924;25.562;2024-03-25T09:02:06;4.18;;;3.88;;
54899;SDS011;40801;41.924;25.562;2024-03-25T09:04:32;4.20;;;3.70;;
54899;SDS011;40801;41.924;25.562;2024-03-25T09:06:59;3.80;;;3.05;;
54899;SDS011;40801;41.924;25.562;2024-03-25T09:09:24;5.20;;;3.78;;
54899;SDS011;40801;41.924;25.562;2024-03-25T09:12:08;5.15;;;4.07;;
54899;SDS011;40801;41.924;25.562;2024-03-25T09:14:34;6.40;;;4.10;;
54899;SDS011;40801;41.924;25.562;2024-03-25T09:16:59;4.30;;;3.80;;
54899;SDS011;40801;41.924;25.562;2024-03-25T09:19:25;3.60;;;3.30;;
54899;SDS011;40801;41.924;25.562;2024-03-25T09:21:50;3.75;;;3.45;;
54899;SDS011;40801;41.924;25.562;2024-03-25T09:24:16;4.70;;;4.28;;
54899;SDS011;40801;41.924;25.562;2024-03-25T09:26:42;4.90;;;4.20;;
54899;SDS011;40801;41.924;25.562;2024-03-25T09:29:08;3.67;;;3.38;;
54899;SDS011;40801;41.924;25.562;2024-03-25T09:31:33;8.13;;;3.88;;
54899;SDS011;40801;41.924;25.562;2024-03-25T09:33:59;3.53;;;3.22;;
54899;SDS011;40801;41.924;25.562;2024-03-25T09:36:24;5.97;;;4.85;;
54899;SDS011;40801;41.924;25.562;2024-03-25T09:38:50;5.10;;;4.20;;
54899;SDS011;40801;41.924;25.562;2024-03-25T09:41:17;4.00;;;3.58;;
54899;SDS011;40801;41.924;25.562;2024-03-25T09:43:44;3.40;;;2.97;;
54899;SDS011;40801;41.924;25.562;2024-03-25T09:48:38;4.10;;;3.53;;
54899;SDS011;40801;41.924;25.562;2024-03-25T09:51:05;3.30;;;3.10;;
54899;SDS011;40801;41.924;25.562;2024-03-25T09:53:30;6.38;;;3.13;;
54899;SDS011;40801;41.924;25.562;2024-03-25T09:55:56;3.35;;;3.00;;
54899;SDS011;40801;41.924;25.562;2024-03-25T09:58:22;8.57;;;3.30;;
54899;SDS011;40801;41.924;25.562;2024-03-25T10:00:49;3.28;;;2.47;;
54899;SDS011;40801;41.924;25.562;2024-03-25T10:03:15;3.00;;;2.58;;
54899;SDS011;40801;41.924;25.562;2024-03-25T10:05:40;3.10;;;2.75;;
54899;SDS011;40801;41.924;25.562;2024-03-25T10:08:06;3.20;;;3.00;;
54899;SDS011;40801;41.924;25.562;2024-03-25T10:10:35;3.50;;;3.20;;
54899;SDS011;40801;41.924;25.562;2024-03-25T10:13:04;3.70;;;2.80;;
54899;SDS011;40801;41.924;25.562;2024-03-25T10:15:30;3.63;;;2.60;;
54899;SDS011;40801;41.924;25.562;2024-03-25T10:17:56;2.70;;;2.50;;
54899;SDS011;40801;41.924;25.562;2024-03-25T10:20:21;4.35;;;3.00;;
54899;SDS011;40801;41.924;25.562;2024-03-25T10:22:47;3.13;;;2.80;;
54899;SDS011;40801;41.924;25.562;2024-03-25T10:25:23;4.45;;;3.88;;
54899;SDS011;40801;41.924;25.562;2024-03-25T10:28:01;5.95;;;2.92;;
54899;SDS011;40801;41.924;25.562;2024-03-25T10:30:27;3.60;;;2.92;;
54899;SDS011;40801;41.924;25.562;2024-03-25T10:32:59;4.85;;;3.13;;
54899;SDS011;40801;41.924;25.562;2024-03-25T10:35:26;3.08;;;2.88;;
54899;SDS011;40801;41.924;25.562;2024-03-25T10:37:56;3.53;;;2.45;;
54899;SDS011;40801;41.924;25.562;2024-03-25T10:40:28;2.88;;;2.67;;
54899;SDS011;40801;41.924;25.562;2024-03-25T10:43:04;4.10;;;3.78;;
54899;SDS011;40801;41.924;25.562;2024-03-25T10:45:43;4.93;;;2.85;;
54899;SDS011;40801;41.924;25.562;2024-03-25T10:50:53;4.07;;;2.90;;
54899;SDS011;40801;41.924;25.562;2024-03-25T10:53:20;3.85;;;2.85;;
54899;SDS011;40801;41.924;25.562;2024-03-25T10:55:48;6.00;;;2.33;;
54899;SDS011;40801;41.924;25.562;2024-03-25T10:58:16;7.03;;;2.22;;
54899;SDS011;40801;41.924;25.562;2024-03-25T11:00:42;2.42;;;1.90;;
54899;SDS011;40801;41.924;25.562;2024-03-25T11:03:09;2.35;;;2.15;;
54899;SDS011;40801;41.924;25.562;2024-03-25T11:05:35;3.15;;;2.00;;
54899;SDS011;40801;41.924;25.562;2024-03-25T11:08:11;4.82;;;2.33;;
54899;SDS011;40801;41.924;25.562;2024-03-25T11:10:44;3.55;;;2.22;;
54899;SDS011;40801;41.924;25.562;2024-03-25T11:13:16;14.55;;;3.17;;
54899;SDS011;40801;41.924;25.562;2024-03-25T11:15:44;2.20;;;1.98;;
54899;SDS011;40801;41.924;25.562;2024-03-25T11:18:14;2.30;;;2.00;;
54899;SDS011;40801;41.924;25.562;2024-03-25T11:20:43;2.90;;;1.88;;
54899;SDS011;40801;41.924;25.562;2024-03-25T11:23:09;4.50;;;2.05;;
54899;SDS011;40801;41.924;25.562;2024-03-25T11:25:36;1.90;;;1.80;;
54899;SDS011;40801;41.924;25.562;2024-03-25T11:28:02;2.50;;;1.92;;
54899;SDS011;40801;41.924;25.562;2024-03-25T11:30:29;2.03;;;1.70;;
54899;SDS011;40801;41.924;25.562;2024-03-25T11:32:56;2.55;;;1.63;;
54899;SDS011;40801;41.924;25.562;2024-03-25T11:35:23;2.42;;;1.60;;
54899;SDS011;40801;41.924;25.562;2024-03-25T11:37:49;2.53;;;1.83;;
54899;SDS011;40801;41.924;25.562;2024-03-25T11:40:17;2.42;;;1.67;;
54899;SDS011;40801;41.924;25.562;2024-03-25T11:42:43;2.25;;;1.73;;
54899;SDS011;40801;41.924;25.562;2024-03-25T11:45:15;4.95;;;2.40;;
54899;SDS011;40801;41.924;25.562;2024-03-25T11:47:42;2.08;;;1.92;;
54899;SDS011;40801;41.924;25.562;2024-03-25T11:50:09;2.08;;;1.80;;
54899;SDS011;40801;41.924;25.562;2024-03-25T11:52:36;3.10;;;2.28;;
54899;SDS011;40801;41.924;25.562;2024-03-25T11:55:03;2.58;;;1.80;;
54899;SDS011;40801;41.924;25.562;2024-03-25T11:57:29;1.67;;;1.58;;
54899;SDS011;40801;41.924;25.562;2024-03-25T11:59:54;3.50;;;3.20;;
54899;SDS011;40801;41.924;25.562;2024-03-25T12:02:20;3.35;;;1.80;;
54899;SDS011;40801;41.924;25.562;2024-03-25T12:04:47;2.08;;;1.70;;
54899;SDS011;40801;41.924;25.562;2024-03-25T12:07:13;3.63;;;2.03;;
54899;SDS011;40801;41.924;25.562;2024-03-25T12:09:39;1.90;;;1.75;;
54899;SDS011;40801;41.924;25.562;2024-03-25T12:12:23;4.22;;;2.95;;
54899;SDS011;40801;41.924;25.562;2024-03-25T12:14:49;2.22;;;1.90;;
54899;SDS011;40801;41.924;25.562;2024-03-25T12:17:16;2.95;;;2.13;;
54899;SDS011;40801;41.924;25.562;2024-03-25T12:19:42;2.28;;;1.92;;
54899;SDS011;40801;41.924;25.562;2024-03-25T12:22:07;3.47;;;2.60;;
54899;SDS011;40801;41.924;25.562;2024-03-25T12:24:33;2.40;;;2.22;;
54899;SDS011;40801;41.924;25.562;2024-03-25T12:26:58;7.45;;;6.78;;
54899;SDS011;40801;41.924;25.562;2024-03-25T12:29:24;2.85;;;1.60;;
54899;SDS011;40801;41.924;25.562;2024-03-25T12:31:53;2.45;;;1.35;;
54899;SDS011;40801;41.924;25.562;2024-03-25T12:34:20;4.82;;;2.85;;
54899;SDS011;40801;41.924;25.562;2024-03-25T12:36:45;2.25;;;1.40;;
54899;SDS011;40801;41.924;25.562;2024-03-25T12:39:20;5.07;;;3.65;;
54899;SDS011;40801;41.924;25.562;2024-03-25T12:41:45;3.28;;;3.03;;
54899;SDS011;40801;41.924;25.562;2024-03-25T12:44:13;2.65;;;2.33;;
54899;SDS011;40801;41.924;25.562;2024-03-25T12:46:39;3.33;;;1.90;;
54899;SDS011;40801;41.924;25.562;2024-03-25T12:49:05;1.70;;;1.60;;
54899;SDS011;40801;41.924;25.562;2024-03-25T12:51:31;2.33;;;1.70;;
54899;SDS011;40801;41.924;25.562;2024-03-25T12:53:56;2.30;;;2.03;;
54899;SDS011;40801;41.924;25.562;2024-03-25T12:56:22;1.50;;;1.40;;
54899;SDS011;40801;41.924;25.562;2024-03-25T12:58:48;3.58;;;1.83;;
54899;SDS011;40801;41.924;25.562;2024-03-25T13:01:14;3.42;;;2.25;;
54899;SDS011;40801;41.924;25.562;2024-03-25T13:03:40;1.70;;;1.60;;
54899;SDS011;40801;41.924;25.562;2024-03-25T13:06:06;2.10;;;1.90;;
54899;SDS011;40801;41.924;25.562;2024-03-25T13:08:32;4.05;;;2.25;;
54899;SDS011;40801;41.924;25.562;2024-03-25T13:10:58;1.85;;;1.75;;
54899;SDS011;40801;41.924;25.562;2024-03-25T13:13:23;4.05;;;2.35;;
54899;SDS011;40801;41.924;25.562;2024-03-25T13:15:49;3.47;;;1.30;;
54899;SDS011;40801;41.924;25.562;2024-03-25T13:18:14;2.58;;;2.33;;
54899;SDS011;40801;41.924;25.562;2024-03-25T13:20:39;4.57;;;3.20;;
54899;SDS011;40801;41.924;25.562;2024-03-25T13:23:05;9.07;;;7.57;;
54899;SDS011;40801;41.924;25.562;2024-03-25T13:25:31;8.85;;;6.43;;
54899;SDS011;40801;41.924;25.562;2024-03-25T13:27:56;2.35;;;2.15;;
54899;SDS011;40801;41.924;25.562;2024-03-25T13:30:21;1.70;;;1.50;;
54899;SDS011;40801;41.924;25.562;2024-03-25T13:32:49;2.28;;;2.08;;
54899;SDS011;40801;41.924;25.562;2024-03-25T13:35:15;1.95;;;1.85;;
54899;SDS011;40801;41.924;25.562;2024-03-25T13:37:41;1.85;;;1.75;;
54899;SDS011;40801;41.924;25.562;2024-03-25T13:40:06;3.10;;;1.90;;
54899;SDS011;40801;41.924;25.562;2024-03-25T13:42:34;3.60;;;1.70;;
54899;SDS011;40801;41.924;25.562;2024-03-25T13:44:59;2.67;;;2.10;;
54899;SDS011;40801;41.924;25.562;2024-03-25T13:47:25;2.28;;;1.90;;
54899;SDS011;40801;41.924;25.562;2024-03-25T13:49:59;8.15;;;7.32;;
54899;SDS011;40801;41.924;25.562;2024-03-25T13:52:28;2.10;;;2.00;;
54899;SDS011;40801;41.924;25.562;2024-03-25T13:54:54;1.50;;;1.40;;
54899;SDS011;40801;41.924;25.562;2024-03-25T13:57:19;1.77;;;1.67;;
54899;SDS011;40801;41.924;25.562;2024-03-25T13:59:45;3.45;;;2.78;;
54899;SDS011;40801;41.924;25.562;2024-03-25T14:02:11;2.90;;;1.90;;
54899;SDS011;40801;41.924;25.562;2024-03-25T14:04:36;4.50;;;1.83;;
54899;SDS011;40801;41.924;25.562;2024-03-25T14:07:01;2.55;;;1.40;;
54899;SDS011;40801;41.924;25.562;2024-03-25T14:09:27;2.88;;;1.70;;
54899;SDS011;40801;41.924;25.562;2024-03-25T14:11:53;2.88;;;1.65;;
54899;SDS011;40801;41.924;25.562;2024-03-25T14:14:18;3.08;;;2.13;;
54899;SDS011;40801;41.924;25.562;2024-03-25T14:16:44;2.47;;;2.28;;
54899;SDS011;40801;41.924;25.562;2024-03-25T14:19:09;3.92;;;2.00;;
54899;SDS011;40801;41.924;25.562;2024-03-25T14:21:35;2.45;;;2.30;;
54899;SDS011;40801;41.924;25.562;2024-03-25T14:24:00;1.88;;;1.77;;
54899;SDS011;40801;41.924;25.562;2024-03-25T14:26:26;1.95;;;1.85;;
54899;SDS011;40801;41.924;25.562;2024-03-25T14:28:51;1.60;;;1.40;;
54899;SDS011;40801;41.924;25.562;2024-03-25T14:31:17;1.98;;;1.77;;
54899;SDS011;40801;41.924;25.562;2024-03-25T14:33:42;1.88;;;1.30;;